Flight Track Log - Related Links

Times and Time Zones

All times are in EDT time to prevent confusion due to time zone crossing. See the CSJ405 flight status page for this flight to view local times or setup timezone preferences in your user account.

Time Position Orientation Groundspeed Altitude Reporting Facility
EDT Latitude Longitude Course Direction KTS MPH feet Rate Location/Type
Fri 02:02:14 AM 43.1667 -79.9000 360° North 40 46 800  Level Toronto Center
Fri 02:03:14 AM 43.1667 -79.9000 360° North 30 35 800  Level Toronto Center
Fri 02:04:21 AM 43.1667 -79.9000 236° Southwest 20 23 800 283 Level Toronto Center
Fri 02:05:21 AM 43.1500 -79.9333 236° Southwest 90 104 1,400 600 Climbing Toronto Center
Fri 02:06:21 AM 43.1333 -79.9500 216° Southwest 90 104 2,000 650 Climbing Toronto Center
Fri 02:07:21 AM 43.1167 -79.9833 236° Southwest 110 127 2,700 700 Climbing Toronto Center
Fri 02:08:21 AM 43.0833 -80.0000 200° South 110 127 3,400 700 Climbing Toronto Center
Fri 02:09:21 AM 43.0667 -79.9500 115° Southeast 130 150 4,100 700 Climbing Toronto Center
Fri 02:10:21 AM 43.1000 -79.9333 20° North 120 138 4,800 700 Climbing Toronto Center
Fri 02:11:21 AM 43.1167 -79.9000 56° Northeast 120 138 5,500 800 Climbing Toronto Center
Fri 02:12:21 AM 43.1500 -79.8833 20° North 120 138 6,400 800 Climbing Toronto Center
Fri 02:14:21 AM 43.1833 -79.8000 61° Northeast 140 161 7,900 733 Climbing Toronto Center
Fri 02:15:21 AM 43.2167 -79.7500 48° Northeast 140 161 8,600 700 Climbing Toronto Center
Fri 02:16:21 AM 43.2333 -79.7000 65° Northeast 140 161 9,300 750 Climbing Toronto Center
Fri 02:17:21 AM 43.2500 -79.6500 65° Northeast 140 161 10,100 700 Climbing Toronto Center
Fri 02:18:21 AM 43.2667 -79.6167 56° Northeast 150 173 10,700 500 Climbing Toronto Center
Fri 02:19:21 AM 43.3000 -79.5667 47° Northeast 150 173 11,100 150 Climbing Toronto Center
Fri 02:20:21 AM 43.3167 -79.5000 71° East 170 196 11,000 -50 Descending Toronto Center
Fri 02:21:21 AM 43.3500 -79.4500 47° Northeast 180 207 11,000  Level Toronto Center
Fri 02:22:21 AM 43.3833 -79.3833 55° Northeast 180 207 11,000  Level Toronto Center
Fri 02:23:21 AM 43.4000 -79.3333 65° Northeast 180 207 11,000  Level Toronto Center
Fri 02:24:21 AM 43.4333 -79.2667 55° Northeast 180 207 11,000  Level Toronto Center
Fri 02:25:21 AM 43.4667 -79.2167 47° Northeast 180 207 11,000  Level Toronto Center
Fri 02:26:21 AM 43.4833 -79.1500 71° East 180 207 11,000  Level Toronto Center
Fri 02:27:21 AM 43.5167 -79.0833 55° Northeast 180 207 11,000  Level Toronto Center
Fri 02:28:21 AM 43.5500 -79.0333 47° Northeast 180 207 11,000  Level Toronto Center
Fri 02:29:21 AM 43.5667 -78.9667 71° East 180 207 11,000  Level Toronto Center
Fri 02:30:21 AM 43.6000 -78.9167 47° Northeast 190 219 11,000  Level Toronto Center
Fri 02:31:21 AM 43.6333 -78.8500 55° Northeast 190 219 11,000  Level Toronto Center
Fri 02:32:21 AM 43.6500 -78.7833 71° East 190 219 11,000  Level Toronto Center
Fri 02:33:21 AM 43.6833 -78.7333 47° Northeast 190 219 11,000  Level Toronto Center
Fri 02:34:21 AM 43.7167 -78.6667 55° Northeast 190 219 11,000  Level Toronto Center
Fri 02:35:21 AM 43.7500 -78.6000 55° Northeast 190 219 11,000  Level Toronto Center
Fri 02:36:21 AM 43.7667 -78.5500 65° Northeast 190 219 11,000  Level Toronto Center
Fri 02:37:21 AM 43.7833 -78.4833 71° East 190 219 11,000  Level Toronto Center
Fri 02:38:21 AM 43.8167 -78.4333 47° Northeast 190 219 11,000  Level Toronto Center
Fri 02:39:21 AM 43.8333 -78.3667 71° East 190 219 11,000  Level Toronto Center
Fri 02:40:21 AM 43.8667 -78.2833 61° Northeast 190 219 11,000  Level Toronto Center
Fri 02:41:21 AM 43.9000 -78.2167 55° Northeast 190 219 11,000  Level Toronto Center
Fri 02:42:21 AM 43.9333 -78.1667 47° Northeast 190 219 11,000  Level Toronto Center
Fri 02:43:21 AM 43.9500 -78.1000 71° East 200 230 11,000  Level Toronto Center
Fri 02:44:21 AM 43.9833 -78.0333 55° Northeast 190 219 11,000  Level Toronto Center
Fri 02:45:21 AM 44.0167 -77.9833 47° Northeast 190 219 11,000  Level Toronto Center
Fri 02:46:21 AM 44.0500 -77.9167 55° Northeast 190 219 11,000  Level Toronto Center
Fri 02:47:21 AM 44.0667 -77.8500 71° East 190 219 11,000  Level Toronto Center
Fri 02:48:21 AM 44.1000 -77.8000 47° Northeast 190 219 11,000  Level Toronto Center
Fri 02:49:21 AM 44.1333 -77.7333 55° Northeast 190 219 11,000  Level Toronto Center
Fri 02:50:21 AM 44.1667 -77.6500 61° Northeast 190 219 11,000  Level Toronto Center
Fri 02:51:21 AM 44.1833 -77.5833 71° East 190 219 11,000  Level Toronto Center
Fri 02:52:21 AM 44.2167 -77.5333 47° Northeast 190 219 11,000  Level Toronto Center
Fri 02:53:21 AM 44.2500 -77.4667 55° Northeast 190 219 11,000  Level Toronto Center
Fri 02:54:21 AM 44.2833 -77.4000 55° Northeast 200 230 11,000  Level Toronto Center
Fri 02:55:21 AM 44.2833 -77.3500 90° East 190 219 11,000  Level Toronto Center
Fri 02:56:21 AM 44.3167 -77.2833 55° Northeast 200 230 11,000  Level Toronto Center
Fri 02:57:21 AM 44.3500 -77.2000 61° Northeast 190 219 11,000  Level Toronto Center
Fri 02:58:21 AM 44.3833 -77.1333 55° Northeast 190 219 11,000 -62 Level Toronto Center
Fri 02:58:58 AM 44.4000 -77.1333 360° North 190 219 10,900 -62 Descending Montreal Center
Fri 02:59:58 AM 44.4333 -77.0667 55° Northeast 190 219 10,900  Level Montreal Center
Fri 03:00:58 AM 44.4500 -77.0000 71° East 190 219 10,900  Level Montreal Center
Fri 03:01:58 AM 44.4833 -76.9500 47° Northeast 200 230 10,900  Level Montreal Center
Fri 03:02:58 AM 44.5000 -76.8833 71° East 190 219 10,900  Level Montreal Center
Fri 03:03:58 AM 44.5333 -76.8167 55° Northeast 190 219 10,900  Level Montreal Center
Fri 03:04:58 AM 44.5667 -76.7667 47° Northeast 190 219 10,900  Level Montreal Center
Fri 03:05:58 AM 44.5833 -76.7000 71° East 190 219 10,900 50 Level Montreal Center
Fri 03:06:58 AM 44.6167 -76.6333 55° Northeast 190 219 11,000 72 Climbing Montreal Center
Fri 03:07:21 AM 44.6167 -76.5833 90° East 190 219 11,000  Level Toronto Center
Fri 03:08:21 AM 44.6500 -76.5167 55° Northeast 190 219 11,000  Level Toronto Center
Fri 03:09:21 AM 44.6833 -76.4500 55° Northeast 190 219 11,000  Level Toronto Center
Fri 03:10:21 AM 44.7000 -76.4000 65° Northeast 190 219 11,000  Level Toronto Center
Fri 03:10:58 AM 44.7167 -76.3667 55° Northeast 190 219 11,000  Level Montreal Center
Fri 03:11:58 AM 44.7500 -76.3167 47° Northeast 190 219 11,000  Level Montreal Center
Fri 03:12:58 AM 44.7667 -76.2500 71° East 190 219 11,000  Level Montreal Center
Fri 03:13:58 AM 44.8000 -76.1833 55° Northeast 190 219 11,000  Level Montreal Center
Fri 03:14:58 AM 44.8167 -76.1333 65° Northeast 190 219 11,000  Level Montreal Center
Fri 03:15:58 AM 44.8500 -76.0667 55° Northeast 190 219 11,000  Level Montreal Center
Fri 03:16:58 AM 44.8833 -76.0000 55° Northeast 190 219 11,000  Level Montreal Center
Fri 03:17:58 AM 44.9000 -75.9500 65° Northeast 180 207 11,000  Level Montreal Center
Fri 03:18:58 AM 44.9333 -75.8667 61° Northeast 180 207 11,000  Level Montreal Center
Fri 03:19:58 AM 44.9500 -75.8000 71° East 190 219 11,000  Level Montreal Center
Fri 03:20:58 AM 44.9833 -75.7500 47° Northeast 190 219 11,000  Level Montreal Center
Fri 03:21:58 AM 45.0000 -75.6833 71° East 190 219 11,000  Level Montreal Center
Fri 03:22:58 AM 45.0167 -75.6167 71° East 190 219 11,000 50 Level Montreal Center
Fri 03:23:58 AM 45.0500 -75.5333 60° Northeast 180 207 11,100 50 Climbing Montreal Center
Fri 03:24:58 AM 45.0667 -75.5000 55° Northeast 180 207 11,100  Level Montreal Center
Fri 03:25:58 AM 45.1000 -75.4167 60° Northeast 180 207 11,100 -150 Level Montreal Center
Fri 03:26:58 AM 45.1167 -75.3500 70° East 190 219 10,800 -450 Descending Montreal Center
Fri 03:27:58 AM 45.1500 -75.2833 55° Northeast 200 230 10,200 -550 Descending Montreal Center
Fri 03:28:58 AM 45.1667 -75.2000 74° East 200 230 9,700 -500 Descending Montreal Center
Fri 03:29:58 AM 45.2000 -75.1333 55° Northeast 200 230 9,200 -500 Descending Montreal Center
Fri 03:30:58 AM 45.2167 -75.0667 70° East 200 230 8,700 -500 Descending Montreal Center
Fri 03:31:58 AM 45.2500 -75.0000 55° Northeast 200 230 8,200 -450 Descending Montreal Center
Fri 03:32:58 AM 45.2667 -74.9167 74° East 200 230 7,800 -600 Descending Montreal Center
Fri 03:33:58 AM 45.3000 -74.8500 55° Northeast 200 230 7,000 -650 Descending Montreal Center
Fri 03:34:58 AM 45.3167 -74.7833 70° East 190 219 6,500 -550 Descending Montreal Center
Fri 03:35:58 AM 45.3500 -74.7333 47° Northeast 190 219 5,900 -550 Descending Montreal Center
Fri 03:36:58 AM 45.3667 -74.6500 74° East 180 207 5,400 -550 Descending Montreal Center
Fri 03:37:58 AM 45.3833 -74.5833 70° East 170 196 4,800 -650 Descending Montreal Center
Fri 03:38:58 AM 45.4167 -74.5333 46° Northeast 170 196 4,100 -700 Descending Montreal Center
Fri 03:39:58 AM 45.4333 -74.4667 70° East 180 207 3,400 -500 Descending Montreal Center
Fri 03:40:58 AM 45.4500 -74.4167 65° Northeast 170 196 3,100 -150 Descending Montreal Center
Fri 03:41:58 AM 45.4833 -74.3500 54° Northeast 170 196 3,100  Level Montreal Center
Fri 03:42:58 AM 45.5000 -74.3000 65° Northeast 160 184 3,100 -100 Level Montreal Center
Fri 03:43:58 AM 45.5167 -74.2167 74° East 160 184 2,900 -50 Descending Montreal Center
Fri 03:44:58 AM 45.5500 -74.1667 46° Northeast 160 184 3,000 -100 Climbing Montreal Center
Fri 03:45:58 AM 45.5833 -74.1500 19° North 160 184 2,700 -550 Descending Montreal Center
Fri 03:46:58 AM 45.6000 -74.1000 65° Northeast 140 161 1,900 -650 Descending Montreal Center
Fri 03:47:58 AM 45.6333 -74.0667 35° Northeast 100 115 1,400 -500 Descending Montreal Center
Fri 03:48:58 AM 45.6500 -74.0500 35° Northeast 70 81 900 -400 Descending Montreal Center
Fri 03:49:58 AM 45.6667 -74.0333 35° Northeast 70 81 600 -250 Descending Montreal Center
Fri 03:50:58 AM 45.6500 -74.0000 126° Southeast 70 81 400 -200 Descending Montreal Center

Login

Don't have an account? Register now (free) for customized features, flight alerts, and more!